Pierce, TX (77467)

8:30 PM CDT on July 30, 2014 (GMT -0500)
Wharton Regional (KARM) Elev 102 ft | 29.25 °N, 96.15 °W | Change Station

Current weather conditions updated 15 minutes ago

Clear
Clear
84 °F
Feels Like 89 °F
N
9
Wind Variable Wind from SE

Tomorrow is forecast to be nearly the same temperature as today. Late night thunderstorms tomorrow night.

Today
High -- | Low -- °F
--% Chance of Precip.
Yesterday
High -- | Low -- °F
Precip. -- in
6:44 AM 8:18 PM
Waxing Crescent, 15% visible
Pressure 29.96 in
Visibility 10.0 miles
Clouds Clear
Heat Index 89 °F
Dew Point 71 °F
Humidity 65%
Rainfall 0.00 in
Snow Depth Not available.
UV 0 out of 12
Pollen 4.40 out of 12
Air Quality Not available.
Flu Activity Not available.
METAR KARM 310115Z AUTO 14008KT 10SM CLR 29/22 A2996 RMK AO2 T02900218

More Conditions Fewer Conditions

Pressure 29.96 in
Visibility 10.0 miles
Clouds Clear
Heat Index 89 °F
Dew Point 71 °F
Humidity 65%
Rainfall 0.00 in
Snow Depth Not available.
UV 0 out of 12
Pollen 4.40 out of 12
Air Quality Not available.
Flu Activity Not available.
METAR KARM 310115Z AUTO 14008KT 10SM CLR 29/22 A2996 RMK AO2 T02900218

More Conditions Fewer Conditions

10-Day Weather Forecast

Almanac

Astronomy

Jul. 30, 2014 Rise Set
Actual Time 6:44 AM CDT 8:18 PM CDT
Civil Twilight 6:18 AM CDT 8:43 PM CDT
Nautical Twilight 5:47 AM CDT 9:14 PM CDT
Astronomical Twilight 5:14 AM CDT 9:46 PM CDT
Moon 9:56 AM CDT (7/30) 10:23 PM CDT (7/30)
Length of Visible Light 14h 25m
Length of Day
13h 33m
Tomorrow will be 1m 15s shorter.
Waxing Crescent, 15% of the Moon is Illuminated
Today
Waxing Crescent
Aug 3
First Quarter
Aug 10
Full
Aug 17
Last Quarter
Aug 25
New

Today's Extremes

State Highs State Lows

Community

WunderPhotos

Upload Photos

1,739,264 photos uploaded!

Nearby

Snow Depth

Station Depth Elevation
No new snow has been reported.

Earthquake Activity

City Distance Mag. Time & Date
No recent earthquake activity has been reported nearby.
Minimum magnitude displayed is 2.5.

Coastal Water Temperatures

Place Temperature
No Stations Reporting

Nearby Weather Stations

Station Location Temp. Heat Index Dew Point Humidity Wind Precip. Elev Updated Type
FM1160, Louise, TX 84.2 °F 89 °F 71 °F 65% North  at  - 0.00 in / hr 105 ft 8:27 PM CDT Normal
MesoWest EBRNRD , Lissie, TX 91 °F 87 °F - - North  at  - 0.00 in / hr 125 ft 7:10 PM CDT MADIS
Moccasin Farms, Ganado, TX 81.3 °F 86 °F 73 °F 75% SSE  at  2.9 mph 0.00 in / hr 56 ft 8:30 PM CDT Rapid Fire
Squad One Fort Bend County EMS, Needville, TX 84.4 °F 92 °F 74 °F 72% SSE  at  2.0 mph 0.00 in / hr 89 ft 8:30 PM CDT Rapid Fire
Melvin Court, Needville, TX 83.7 °F 91 °F 75 °F 75% South  at  4.2 mph - / hr 88 ft 8:23 PM CDT Normal

Show More Stations Show Fewer Stations